createdAt,value
2022-08-08T00:01:06.953Z,18.889999
2022-08-08T00:04:27.777Z,18.879999
2022-08-08T00:07:51.043Z,18.860001
2022-08-08T00:11:16.383Z,18.860001
2022-08-08T00:14:48.886Z,18.82
2022-08-08T00:18:06.999Z,18.799999
2022-08-08T00:21:39.480Z,18.74
2022-08-08T00:24:57.599Z,18.67
2022-08-08T00:28:34.715Z,18.6
2022-08-08T00:32:16.059Z,18.559999
2022-08-08T00:35:15.439Z,18.52
2022-08-08T00:38:44.659Z,18.469999
2022-08-08T00:42:08.760Z,18.450001
2022-08-08T00:45:29.657Z,18.370001
2022-08-08T00:48:59.524Z,18.290001
2022-08-08T00:52:20.497Z,18.200001
2022-08-08T00:55:53.602Z,18.09
2022-08-08T00:59:10.721Z,18.01
2022-08-08T01:04:00.298Z,17.940001
2022-08-08T01:06:02.258Z,17.85
2022-08-08T01:09:35.208Z,17.75
2022-08-08T01:12:52.188Z,17.639999
2022-08-08T01:16:17.311Z,17.469999
2022-08-08T01:20:01.443Z,17.33
2022-08-08T01:23:07.926Z,17.18
2022-08-08T01:26:33.231Z,17.049999
2022-08-08T01:30:01.669Z,16.969999
2022-08-08T01:33:27.759Z,16.93
2022-08-08T01:36:50.576Z,16.85
2022-08-08T01:40:15.018Z,16.780001
2022-08-08T01:43:39.812Z,16.700001
2022-08-08T01:47:06.073Z,16.65
2022-08-08T01:50:33.954Z,16.629999
2022-08-08T01:55:15.242Z,16.620001
2022-08-08T01:57:21.001Z,16.620001
2022-08-08T02:00:48.359Z,16.57
2022-08-08T02:04:11.584Z,16.5
2022-08-08T02:07:41.509Z,16.459999
2022-08-08T02:11:02.183Z,16.440001
2022-08-08T02:14:27.473Z,16.41
2022-08-08T02:17:52.767Z,16.389999
2022-08-08T02:21:20.349Z,16.360001
2022-08-08T02:24:44.149Z,16.34
2022-08-08T02:28:08.664Z,16.32
2022-08-08T02:31:43.757Z,16.290001
2022-08-08T02:35:08.698Z,16.25
2022-08-08T02:38:25.203Z,16.219999
2022-08-08T02:41:58.217Z,16.200001
2022-08-08T02:45:18.408Z,16.200001
2022-08-08T02:48:41.007Z,16.209999
2022-08-08T02:52:07.307Z,16.209999
2022-08-08T02:55:31.899Z,16.219999
2022-08-08T02:58:56.327Z,16.200001
2022-08-08T03:02:22.718Z,16.15
2022-08-08T03:05:46.935Z,16.120001
2022-08-08T03:09:12.259Z,16.1
2022-08-08T03:13:01.291Z,16.110001
2022-08-08T03:16:05.497Z,16.1
2022-08-08T03:19:28.130Z,16.110001
2022-08-08T03:22:56.536Z,16.1
2022-08-08T03:26:18.703Z,16.110001
2022-08-08T03:29:51.443Z,16.120001
2022-08-08T03:33:54.288Z,16.120001
2022-08-08T03:36:35.838Z,16.139999
2022-08-08T03:40:02.225Z,16.139999
2022-08-08T03:43:31.404Z,16.110001
2022-08-08T03:46:51.703Z,16.09
2022-08-08T03:50:19.876Z,16.08
2022-08-08T03:53:47.531Z,16.049999
2022-08-08T03:58:08.702Z,16.030001
2022-08-08T04:00:32.891Z,16
2022-08-08T04:04:01.584Z,15.99
2022-08-08T04:07:23.417Z,15.96
2022-08-08T04:10:48.715Z,15.93
2022-08-08T04:14:33.605Z,15.91
2022-08-08T04:17:46.921Z,15.91
2022-08-08T04:21:05.004Z,15.9
2022-08-08T04:24:30.894Z,15.9
2022-08-08T04:28:02.017Z,15.92
2022-08-08T04:31:31.010Z,15.99
2022-08-08T04:34:55.540Z,16.049999
2022-08-08T04:38:11.028Z,16.1
2022-08-08T04:41:36.861Z,16.16
2022-08-08T04:45:01.604Z,16.209999
2022-08-08T04:48:26.862Z,16.26
2022-08-08T04:51:55.463Z,16.32
2022-08-08T04:55:17.472Z,16.4
2022-08-08T04:58:42.798Z,16.469999
2022-08-08T05:02:08.137Z,16.610001
2022-08-08T05:05:45.045Z,16.75
2022-08-08T05:09:02.595Z,16.91
2022-08-08T05:12:29.176Z,17.040001
2022-08-08T05:16:48.703Z,17.200001
2022-08-08T05:20:05.075Z,17.360001
2022-08-08T05:22:39.819Z,17.48
2022-08-08T05:26:05.107Z,17.59
2022-08-08T05:29:30.423Z,17.68
2022-08-08T05:32:55.696Z,17.719999
2022-08-08T05:36:23.228Z,17.75
2022-08-08T05:39:46.402Z,17.790001
2022-08-08T05:43:15.707Z,17.870001
2022-08-08T05:46:36.893Z,17.950001
2022-08-08T05:50:02.197Z,18
2022-08-08T05:53:54.982Z,18.110001
2022-08-08T05:56:52.810Z,18.27
2022-08-08T06:00:23.783Z,18.49
2022-08-08T06:03:43.490Z,18.77
2022-08-08T06:07:08.657Z,19.030001
2022-08-08T06:10:34.642Z,19.280001
2022-08-08T06:13:59.178Z,19.59
2022-08-08T06:17:31.936Z,19.879999
2022-08-08T06:20:50.356Z,20.209999
2022-08-08T06:24:22.931Z,20.549999
2022-08-08T06:27:41.262Z,20.85
2022-08-08T06:31:05.500Z,21.059999
2022-08-08T06:34:30.827Z,21.26
2022-08-08T06:37:57.538Z,21.4
2022-08-08T06:41:21.376Z,21.52
2022-08-08T06:44:46.695Z,21.58
2022-08-08T06:48:12.024Z,21.610001
2022-08-08T06:51:46.845Z,21.629999
2022-08-08T06:55:02.645Z,21.65
2022-08-08T06:58:30.599Z,21.65
2022-08-08T07:02:18.560Z,21.67
2022-08-08T07:05:20.229Z,21.67
2022-08-08T07:08:43.855Z,21.66
2022-08-08T07:12:09.157Z,21.700001
2022-08-08T07:15:41.242Z,21.77
2022-08-08T07:18:59.735Z,21.809999
2022-08-08T07:22:25.032Z,21.85
2022-08-08T07:25:54.305Z,21.9
2022-08-08T07:29:20.370Z,21.940001
2022-08-08T07:32:40.983Z,21.969999
2022-08-08T07:36:06.272Z,21.99
2022-08-08T07:39:46.028Z,22.07
2022-08-08T07:42:56.904Z,22.190001
2022-08-08T07:46:24.226Z,22.33
2022-08-08T07:49:49.253Z,22.450001
2022-08-08T07:53:13.070Z,22.57
2022-08-08T07:56:38.375Z,22.709999
2022-08-08T08:00:03.658Z,22.799999
2022-08-08T08:03:28.978Z,22.84
2022-08-08T08:06:54.278Z,22.870001
2022-08-08T08:10:30.078Z,22.9
2022-08-08T08:14:06.203Z,22.959999
2022-08-08T08:17:10.147Z,22.98
2022-08-08T08:20:35.438Z,22.959999
2022-08-08T08:24:02.728Z,22.959999
2022-08-08T08:27:26.199Z,22.969999
2022-08-08T08:30:51.560Z,22.940001
2022-08-08T08:34:16.888Z,22.940001
2022-08-08T08:38:05.771Z,22.98
2022-08-08T08:41:12.981Z,23.049999
2022-08-08T08:44:32.911Z,23.08
2022-08-08T08:48:00.812Z,23.030001
2022-08-08T08:51:23.584Z,23.01
2022-08-08T08:54:48.923Z,23
2022-08-08T08:58:14.330Z,23.01
2022-08-08T09:01:42.154Z,23.030001
2022-08-08T09:05:05.073Z,23.040001
2022-08-08T09:08:30.375Z,23.059999
2022-08-08T09:12:01.295Z,23.09
2022-08-08T09:15:37.357Z,23.129999
2022-08-08T09:18:46.957Z,23.219999
2022-08-08T09:22:11.812Z,23.309999
2022-08-08T09:25:55.094Z,23.43
2022-08-08T09:29:06.604Z,23.57
2022-08-08T09:32:31.190Z,23.65
2022-08-08T09:35:53.424Z,23.690001
2022-08-08T09:39:19.239Z,23.75
2022-08-08T09:42:51.291Z,23.889999
2022-08-08T09:46:11.127Z,24.049999
2022-08-08T09:49:41.946Z,24.190001
2022-08-08T09:53:05.977Z,24.290001
2022-08-08T09:56:27.621Z,24.389999
2022-08-08T10:00:14.604Z,24.51
2022-08-08T10:03:19.779Z,24.629999
2022-08-08T10:06:41.702Z,24.690001
2022-08-08T10:10:07.330Z,24.84
2022-08-08T10:13:35.956Z,25
2022-08-08T10:16:58.403Z,25.16
2022-08-08T10:20:27.476Z,25.25
2022-08-08T10:23:56.207Z,25.33
2022-08-08T10:27:13.897Z,25.379999
2022-08-08T10:30:57.123Z,25.469999
2022-08-08T10:34:18.380Z,25.51
2022-08-08T10:37:30.158Z,25.65
2022-08-08T10:40:55.150Z,25.790001
2022-08-08T10:44:20.667Z,25.9
2022-08-08T10:47:48.378Z,25.93
2022-08-08T10:51:11.396Z,25.940001
2022-08-08T10:54:40.680Z,25.950001
2022-08-08T10:58:02.328Z,25.98
2022-08-08T11:01:27.847Z,26.01
2022-08-08T11:04:54.074Z,26.040001
2022-08-08T11:08:31.963Z,26.059999
2022-08-08T11:12:00.383Z,26.09
2022-08-08T11:15:10.806Z,26.17
2022-08-08T11:18:36.191Z,26.23
2022-08-08T11:22:01.533Z,26.219999
2022-08-08T11:25:46.343Z,26.209999
2022-08-08T11:28:52.315Z,26.280001
2022-08-08T11:32:17.664Z,26.33
2022-08-08T11:35:44.257Z,26.360001
2022-08-08T11:39:10.942Z,26.41
2022-08-08T11:42:35.502Z,26.41
2022-08-08T11:46:10.221Z,26.450001
2022-08-08T11:49:25.640Z,26.549999
2022-08-08T11:52:50.939Z,26.59
2022-08-08T11:56:16.282Z,26.58
2022-08-08T11:59:58.004Z,26.51
2022-08-08T12:03:06.975Z,26.51
2022-08-08T12:06:32.217Z,26.540001
2022-08-08T12:10:00.321Z,26.530001
2022-08-08T12:13:33.591Z,26.549999
2022-08-08T12:16:48.875Z,26.6
2022-08-08T12:20:14.435Z,26.620001
2022-08-08T12:23:40.554Z,26.629999
2022-08-08T12:27:04.221Z,26.559999
2022-08-08T12:30:29.547Z,26.540001
2022-08-08T12:34:01.648Z,26.540001
2022-08-08T12:37:20.195Z,26.5
2022-08-08T12:40:54.524Z,26.48
2022-08-08T12:44:10.887Z,26.530001
2022-08-08T12:47:58.178Z,26.610001
2022-08-08T12:51:02.582Z,26.65
2022-08-08T12:54:26.906Z,26.67
2022-08-08T12:57:56.411Z,26.709999
2022-08-08T13:01:24.526Z,26.639999
2022-08-08T13:04:42.907Z,26.65
2022-08-08T13:08:08.267Z,26.639999
2022-08-08T13:12:27.073Z,26.620001
2022-08-08T13:14:58.995Z,26.610001
2022-08-08T13:18:24.791Z,26.58
2022-08-08T13:21:53.448Z,26.559999
2022-08-08T13:25:15.136Z,26.6
2022-08-08T13:28:41.464Z,26.59
2022-08-08T13:32:05.861Z,26.57
2022-08-08T13:35:39.142Z,26.549999
2022-08-08T13:38:59.418Z,26.610001
2022-08-08T13:42:22.011Z,26.67
2022-08-08T13:45:47.881Z,26.66
2022-08-08T13:50:33.994Z,26.620001
2022-08-08T13:52:38.468Z,26.549999
2022-08-08T13:56:03.545Z,26.51
2022-08-08T13:59:28.897Z,26.6
2022-08-08T14:02:54.374Z,26.67
2022-08-08T14:06:20.768Z,26.65
2022-08-08T14:10:02.603Z,26.639999
2022-08-08T14:13:21.156Z,26.610001
2022-08-08T14:16:35.822Z,26.59
2022-08-08T14:20:06.694Z,26.59
2022-08-08T14:24:04.982Z,26.57
2022-08-08T14:26:51.912Z,26.52
2022-08-08T15:07:39.687Z,24.09
2022-08-08T15:11:04.863Z,25.15
2022-08-08T15:14:30.308Z,25.4
2022-08-08T15:18:13.823Z,25.549999
2022-08-08T15:21:42.666Z,25.629999
2022-08-08T15:25:08.489Z,25.719999
2022-08-08T15:28:33.053Z,25.790001
2022-08-08T15:32:04.130Z,25.799999
2022-08-08T15:35:21.607Z,25.799999
2022-08-08T15:38:49.706Z,25.799999
2022-08-08T15:42:13.494Z,25.799999
2022-08-08T15:45:39.218Z,25.76
2022-08-08T15:49:04.020Z,25.74
2022-08-08T15:52:29.498Z,25.74
2022-08-08T15:55:54.797Z,25.76
2022-08-08T15:59:20.373Z,25.73
2022-08-08T16:02:50.911Z,25.700001
2022-08-08T16:06:13.565Z,25.66
2022-08-08T16:13:06.554Z,25.639999
2022-08-08T16:13:26.967Z,25.639999
2022-08-08T16:16:28.420Z,25.6
2022-08-08T16:19:57.025Z,25.58
2022-08-08T16:23:20.255Z,25.57
2022-08-08T16:26:45.802Z,25.559999
2022-08-08T16:30:14.006Z,25.549999
2022-08-08T16:33:38.318Z,25.49
2022-08-08T16:37:01.721Z,25.440001
2022-08-08T16:40:29.069Z,25.389999
2022-08-08T16:43:52.580Z,25.360001
2022-08-08T16:47:18.175Z,25.33
2022-08-08T16:50:43.660Z,25.280001
2022-08-08T16:54:58.372Z,25.23
2022-08-08T16:58:12.932Z,25.190001
2022-08-08T17:00:59.967Z,25.15
2022-08-08T17:04:24.986Z,25.09
2022-08-08T17:07:51.505Z,25.049999
2022-08-08T17:11:15.627Z,25.030001
2022-08-08T17:14:40.992Z,25.01
2022-08-08T17:18:10.691Z,24.969999
2022-08-08T17:21:31.718Z,24.91
2022-08-08T17:24:57.059Z,24.85
2022-08-08T17:28:22.730Z,24.790001
2022-08-08T17:31:47.726Z,24.719999
2022-08-08T17:35:52.277Z,24.629999
2022-08-08T17:38:38.387Z,24.58
2022-08-08T17:42:03.862Z,24.51
2022-08-08T17:45:29.234Z,24.440001
2022-08-08T17:48:54.553Z,24.379999
2022-08-08T17:52:19.932Z,24.34
2022-08-08T17:56:04.232Z,24.26
2022-08-08T17:59:10.574Z,24.200001
2022-08-08T18:02:36.846Z,24.139999
2022-08-08T18:06:02.707Z,24.08
2022-08-08T18:09:27.427Z,24.02
2022-08-08T18:12:52.833Z,23.940001
2022-08-08T18:16:20.869Z,23.870001
2022-08-08T18:19:45.561Z,23.799999
2022-08-08T18:23:12.460Z,23.75
2022-08-08T18:26:34.166Z,23.66
2022-08-08T18:29:59.490Z,23.6
2022-08-08T18:33:37.107Z,23.549999
2022-08-08T18:36:50.125Z,23.48
2022-08-08T18:40:15.460Z,23.42
2022-08-08T18:43:42.916Z,23.34
2022-08-08T18:47:06.201Z,23.25
2022-08-08T18:50:31.550Z,23.15
2022-08-08T18:54:30.907Z,23.059999
2022-08-08T18:57:57.794Z,23
2022-08-08T19:02:13.916Z,22.950001
2022-08-08T19:04:57.694Z,22.879999
2022-08-08T19:08:24.339Z,22.84
2022-08-08T19:11:48.338Z,22.780001
2022-08-08T19:15:13.780Z,22.73
2022-08-08T19:18:48.755Z,22.66
2022-08-08T19:22:04.328Z,22.58
2022-08-08T19:25:59.918Z,22.459999
2022-08-08T19:28:54.909Z,22.35
2022-08-08T19:32:21.712Z,22.26
2022-08-08T19:36:07.738Z,22.17
2022-08-08T19:39:11.002Z,22.110001
2022-08-08T19:42:36.348Z,22.030001
2022-08-08T19:46:01.652Z,21.98
2022-08-08T19:49:27.049Z,21.9
2022-08-08T19:52:54.583Z,21.85
2022-08-08T19:56:25.679Z,21.790001
2022-08-08T19:59:43.069Z,21.73
2022-08-08T20:03:14.350Z,21.65
2022-08-08T20:06:33.696Z,21.59
2022-08-08T20:09:58.981Z,21.52
2022-08-08T20:14:10.602Z,21.370001
2022-08-08T20:16:49.588Z,21.200001
2022-08-08T20:20:16.136Z,21.049999
2022-08-08T20:23:40.179Z,20.959999
2022-08-08T20:27:05.487Z,20.889999
2022-08-08T20:30:35.701Z,20.83
2022-08-08T20:34:28.567Z,20.77
2022-08-08T20:37:21.390Z,20.709999
2022-08-08T20:40:47.465Z,20.65
2022-08-08T20:44:11.979Z,20.540001
2022-08-08T20:47:39.209Z,20.450001
2022-08-08T20:51:02.618Z,20.35
2022-08-08T20:54:28.401Z,20.27
2022-08-08T20:57:53.261Z,20.139999
2022-08-08T21:01:20.108Z,20.07
2022-08-08T21:04:43.870Z,20
2022-08-08T21:08:34.121Z,19.969999
2022-08-08T21:11:50.329Z,19.950001
2022-08-08T21:14:59.784Z,19.91
2022-08-08T21:18:27.880Z,19.860001
2022-08-08T21:21:50.387Z,19.799999
2022-08-08T21:25:16.220Z,19.73
2022-08-08T21:28:41.021Z,19.65
2022-08-08T21:32:06.369Z,19.57
2022-08-08T21:36:13.516Z,19.459999
2022-08-08T21:38:56.972Z,19.35
2022-08-08T21:42:23.007Z,19.25
2022-08-08T21:48:03.386Z,19.17
2022-08-08T21:49:12.866Z,19.09
2022-08-08T21:54:19.545Z,19.059999
2022-08-08T21:56:18.566Z,19.02
2022-08-08T21:59:43.987Z,18.969999
2022-08-08T22:02:53.986Z,18.940001
2022-08-08T22:06:31.045Z,18.91
2022-08-08T22:09:44.570Z,18.84
2022-08-08T22:13:16.805Z,18.799999
2022-08-08T22:16:34.969Z,18.719999
2022-08-08T22:20:10.241Z,18.67
2022-08-08T22:23:29.730Z,18.65
2022-08-08T22:27:02.113Z,18.629999
2022-08-08T22:30:16.067Z,18.620001
2022-08-08T22:34:11.344Z,18.6
2022-08-08T22:37:06.561Z,18.58
2022-08-08T22:40:32.026Z,18.559999
2022-08-08T22:44:01.796Z,18.540001
2022-08-08T22:47:22.296Z,18.51
2022-08-08T22:50:47.519Z,18.51
2022-08-08T22:54:29.778Z,18.450001
2022-08-08T22:57:43.864Z,18.42
2022-08-08T23:01:16.380Z,18.389999
2022-08-08T23:04:32.182Z,18.34
2022-08-08T23:07:56.849Z,18.290001
2022-08-08T23:11:19.070Z,18.24
2022-08-08T23:14:53.412Z,18.200001
2022-08-08T23:18:11.749Z,18.17
2022-08-08T23:21:34.823Z,18.110001
2022-08-08T23:25:00.091Z,18.09
2022-08-08T23:28:25.339Z,18.049999
2022-08-08T23:31:50.579Z,17.99
2022-08-08T23:35:17.113Z,17.940001
2022-08-08T23:38:41.753Z,17.93
2022-08-08T23:42:06.271Z,17.92
2022-08-08T23:48:58.926Z,17.870001
2022-08-08T23:48:59.529Z,17.889999
2022-08-08T23:52:22.030Z,17.85
2022-08-08T23:55:47.283Z,17.85
2022-08-08T23:59:16.716Z,17.860001
